Time;durP1;ratioP1;P1;durP2;ratioP2;P2;SDS_P1;SDS_P2;PMS_P1;PMS_P2;Temp;Humidity;BMP_temperature;BMP_pressure;BME280_temperature;BME280_humidity;BME280_pressure;Samples;Min_cycle;Max_cycle;Signal;HPM_P1;HPM_P2
2021/06/13 00:02:08;;;;;;;;;9.00;8.67;;;;;-147.17;100.00;59696.56;5033058;28;51077;-51
2021/06/13 00:04:33;;;;;;;;;8.33;8.33;;;;;-147.17;100.00;59696.56;5032744;28;50979;-54
2021/06/13 00:06:58;;;;;;;;;8.00;8.00;;;;;-147.17;100.00;59696.56;5031803;28;52893;-52
2021/06/13 00:09:24;;;;;;;;;8.33;8.33;;;;;-147.17;100.00;59696.56;5033875;28;51277;-50
2021/06/13 00:11:50;;;;;;;;;11.50;11.25;;;;;-147.17;100.00;59696.56;5033872;28;51807;-51
2021/06/13 00:14:17;;;;;;;;;9.67;9.67;;;;;-147.17;100.00;59696.56;5034043;28;51083;-53
2021/06/13 00:16:43;;;;;;;;;10.00;9.33;;;;;-147.17;100.00;59696.56;5047678;28;52780;-49
2021/06/13 00:19:08;;;;;;;;;9.75;9.25;;;;;-147.17;100.00;59696.56;5031931;28;51105;-49
2021/06/13 00:21:34;;;;;;;;;10.00;9.00;;;;;-147.17;100.00;59696.56;5034177;28;51091;-50
2021/06/13 00:23:59;;;;;;;;;8.67;8.67;;;;;-147.17;100.00;59696.56;5033992;28;51406;-54
2021/06/13 00:26:25;;;;;;;;;7.00;7.00;;;;;-147.17;100.00;59696.56;5031388;28;51121;-53
2021/06/13 00:28:53;;;;;;;;;11.25;10.00;;;;;-147.17;100.00;59696.56;5033395;28;51174;-49
2021/06/13 00:31:18;;;;;;;;;9.25;8.00;;;;;-147.17;100.00;59696.56;5032405;28;51121;-52
2021/06/13 00:33:44;;;;;;;;;9.00;8.00;;;;;-147.17;100.00;59696.56;5033595;28;50961;-51
2021/06/13 00:36:09;;;;;;;;;9.00;8.75;;;;;-147.17;100.00;59696.56;5033680;28;51733;-52
2021/06/13 00:38:35;;;;;;;;;7.75;7.00;;;;;-147.17;100.00;59696.56;5032940;28;51168;-54
2021/06/13 00:41:01;;;;;;;;;4.25;3.75;;;;;-147.17;100.00;59696.56;5029231;28;51107;-52
2021/06/13 00:43:26;;;;;;;;;8.00;8.00;;;;;-147.17;100.00;59696.56;5031542;28;51324;-53
2021/06/13 00:45:51;;;;;;;;;7.00;7.00;;;;;-147.17;100.00;59696.56;5033483;28;52981;-50
2021/06/13 00:48:17;;;;;;;;;8.67;8.00;;;;;-147.17;100.00;59696.56;5031408;28;51333;-54
2021/06/13 00:50:51;;;;;;;;;10.33;10.33;;;;;-147.17;100.00;59696.56;5032787;28;51119;-54
2021/06/13 00:53:17;;;;;;;;;8.00;8.00;;;;;-147.17;100.00;59696.56;5034102;28;50975;-54
2021/06/13 00:55:44;;;;;;;;;8.25;8.25;;;;;-147.17;100.00;59696.56;5033361;28;52130;-53
2021/06/13 00:58:10;;;;;;;;;8.67;8.00;;;;;-147.17;100.00;59696.56;5031969;28;51083;-53
2021/06/13 01:00:38;;;;;;;;;7.00;7.00;;;;;-147.17;100.00;59696.56;5033585;28;51040;-53
2021/06/13 01:03:04;;;;;;;;;8.25;8.25;;;;;-147.17;100.00;59696.56;5033310;28;51092;-49
2021/06/13 01:05:30;;;;;;;;;9.00;9.00;;;;;-147.17;100.00;59696.56;5032826;28;51069;-51
2021/06/13 01:08:05;;;;;;;;;9.00;9.00;;;;;-147.17;100.00;59696.56;5032601;28;51160;-53
2021/06/13 01:10:44;;;;;;;;;10.00;10.00;;;;;-147.17;100.00;59696.56;5031738;28;51107;-50
2021/06/13 01:13:10;;;;;;;;;10.00;9.00;;;;;-147.17;100.00;59696.56;5033361;28;51210;-50
2021/06/13 01:15:44;;;;;;;;;8.67;8.67;;;;;-147.17;100.00;59696.56;5032815;28;51991;-50
2021/06/13 01:18:19;;;;;;;;;10.00;10.00;;;;;-147.17;100.00;59696.56;5031940;28;51066;-52
2021/06/13 01:20:52;;;;;;;;;11.00;10.67;;;;;-147.17;100.00;59696.56;5032965;28;51137;-51
2021/06/13 01:23:45;;;;;;;;;9.33;9.00;;;;;-147.17;100.00;59696.56;5033422;28;51315;-51
2021/06/13 01:26:28;;;;;;;;;10.00;10.00;;;;;-147.17;100.00;59696.56;5022211;28;51606;-51
2021/06/13 01:29:13;;;;;;;;;10.67;10.67;;;;;-147.17;100.00;59696.56;5030575;28;51151;-52
2021/06/13 01:31:59;;;;;;;;;11.00;10.00;;;;;-147.17;100.00;59696.56;5032767;28;50998;-54
2021/06/13 01:34:31;;;;;;;;;12.67;12.00;;;;;-147.17;100.00;59696.56;5032654;28;51133;-51
2021/06/13 01:36:59;;;;;;;;;9.00;9.00;;;;;-147.17;100.00;59696.56;5031198;28;51505;-52
2021/06/13 01:39:28;;;;;;;;;9.00;9.00;;;;;-147.17;100.00;59696.56;5031938;28;51243;-50
2021/06/13 01:41:57;;;;;;;;;9.00;8.67;;;;;-147.17;100.00;59696.56;5032616;28;51335;-51
2021/06/13 01:44:23;;;;;;;;;10.33;9.00;;;;;-147.17;100.00;59696.56;5032778;28;50852;-52
2021/06/13 01:46:50;;;;;;;;;11.33;10.33;;;;;-147.17;100.00;59696.56;5032289;28;50957;-53
2021/06/13 01:49:17;;;;;;;;;10.00;9.33;;;;;-147.17;100.00;59696.56;5031528;28;51100;-51
2021/06/13 01:51:44;;;;;;;;;9.00;9.00;;;;;-147.17;100.00;59696.56;5032714;28;51042;-51
2021/06/13 01:54:11;;;;;;;;;10.33;9.67;;;;;-147.17;100.00;59696.56;5032933;28;51269;-51
2021/06/13 01:56:40;;;;;;;;;11.25;10.75;;;;;-147.17;100.00;59696.56;5032524;28;51244;-51
2021/06/13 01:59:07;;;;;;;;;10.00;10.00;;;;;-147.17;100.00;59696.56;5030440;28;51173;-52
2021/06/13 02:01:34;;;;;;;;;9.33;9.00;;;;;-147.17;100.00;59696.56;5032596;28;51080;-52
2021/06/13 02:04:01;;;;;;;;;12.50;11.00;;;;;-147.17;100.00;59696.56;5032437;28;50923;-49
2021/06/13 02:06:29;;;;;;;;;10.00;10.00;;;;;-147.17;100.00;59696.56;5032414;28;51842;-49
2021/06/13 02:08:56;;;;;;;;;12.50;11.25;;;;;-147.17;100.00;59696.56;5031944;28;51019;-52
2021/06/13 02:11:22;;;;;;;;;12.25;12.00;;;;;-147.17;100.00;59696.56;5032670;28;51094;-50
2021/06/13 02:13:48;;;;;;;;;10.25;10.25;;;;;-147.17;100.00;59696.56;5032423;28;50953;-51
2021/06/13 02:16:15;;;;;;;;;10.50;10.00;;;;;-147.17;100.00;59696.56;5021180;28;52122;-50
2021/06/13 02:18:43;;;;;;;;;10.25;10.25;;;;;-147.17;100.00;59696.56;5032222;28;51082;-52
2021/06/13 02:21:09;;;;;;;;;11.67;11.00;;;;;-147.17;100.00;59696.56;5032440;28;50900;-52
2021/06/13 02:23:37;;;;;;;;;11.00;11.00;;;;;-147.17;100.00;59696.56;5031727;28;51193;-53
2021/06/13 02:26:02;;;;;;;;;10.67;10.67;;;;;-147.17;100.00;59696.56;5032110;28;52035;-53
2021/06/13 02:28:32;;;;;;;;;9.00;9.00;;;;;-147.17;100.00;59696.56;5031879;28;51525;-54
2021/06/13 02:30:58;;;;;;;;;12.00;11.00;;;;;-147.17;100.00;59696.56;5030945;28;51141;-54
2021/06/13 02:33:25;;;;;;;;;10.33;9.00;;;;;-147.17;100.00;59696.56;5028027;28;50946;-53
2021/06/13 02:35:54;;;;;;;;;12.50;11.75;;;;;-147.17;100.00;59696.56;5031853;28;52021;-53
2021/06/13 02:38:21;;;;;;;;;10.00;9.67;;;;;-147.17;100.00;59696.56;5032117;28;51049;-52
2021/06/13 02:40:47;;;;;;;;;10.67;9.33;;;;;-147.17;100.00;59696.56;5031098;28;50927;-52
2021/06/13 02:43:13;;;;;;;;;11.33;10.00;;;;;-147.17;100.00;59696.56;5032190;28;51379;-51
2021/06/13 02:45:39;;;;;;;;;12.00;11.00;;;;;-147.17;100.00;59696.56;5031734;28;51975;-53
2021/06/13 02:48:06;;;;;;;;;9.67;9.67;;;;;-147.17;100.00;59696.56;5030394;28;51056;-51
2021/06/13 02:50:31;;;;;;;;;9.75;9.75;;;;;-147.17;100.00;59696.56;5030667;28;51133;-51
2021/06/13 02:53:42;;;;;;;;;11.50;10.50;;;;;-147.17;100.00;59696.56;5032042;28;51185;-50
2021/06/13 02:56:16;;;;;;;;;12.75;12.50;;;;;-147.17;100.00;59696.56;5031550;28;52104;-52
2021/06/13 02:58:48;;;;;;;;;10.00;9.33;;;;;-147.17;100.00;59696.56;5031951;28;51011;-53
2021/06/13 03:01:18;;;;;;;;;11.00;10.00;;;;;-147.17;100.00;59696.56;5033750;28;51118;-52
2021/06/13 03:03:44;;;;;;;;;10.33;10.33;;;;;-147.17;100.00;59696.56;5031187;28;50909;-51
2021/06/13 03:06:19;;;;;;;;;10.00;10.00;;;;;-147.17;100.00;59696.56;5033742;28;51835;-53
2021/06/13 03:08:48;;;;;;;;;10.75;10.25;;;;;-147.17;100.00;59696.56;5035090;28;51068;-49
2021/06/13 03:11:16;;;;;;;;;12.00;12.00;;;;;-147.17;100.00;59696.56;5035363;28;51055;-50
2021/06/13 03:13:43;;;;;;;;;11.67;11.00;;;;;-147.17;100.00;59696.56;5035340;28;51043;-48
2021/06/13 03:16:09;;;;;;;;;9.33;9.33;;;;;-147.17;100.00;59696.56;5035213;28;50844;-51
2021/06/13 03:18:36;;;;;;;;;11.75;11.75;;;;;-147.17;100.00;59696.56;5032553;28;51133;-53
2021/06/13 03:21:04;;;;;;;;;10.33;9.00;;;;;-147.17;100.00;59696.56;5034905;28;51189;-52
2021/06/13 03:23:32;;;;;;;;;10.75;10.75;;;;;-147.17;100.00;59696.56;5034028;28;51076;-54
2021/06/13 03:26:01;;;;;;;;;10.50;10.50;;;;;-147.17;100.00;59696.56;5033772;28;51137;-52
2021/06/13 03:28:28;;;;;;;;;10.67;10.00;;;;;-147.17;100.00;59696.56;5033315;28;51064;-53
2021/06/13 03:30:54;;;;;;;;;8.50;8.25;;;;;-147.17;100.00;59696.56;5033805;28;50974;-52
2021/06/13 03:33:22;;;;;;;;;10.00;10.00;;;;;-147.17;100.00;59696.56;5034961;28;51188;-52
2021/06/13 03:35:49;;;;;;;;;9.33;9.33;;;;;-147.17;100.00;59696.56;5033413;28;51737;-51
2021/06/13 03:38:14;;;;;;;;;12.25;11.75;;;;;-147.17;100.00;59696.56;5034657;28;51341;-53
2021/06/13 03:40:41;;;;;;;;;11.33;11.00;;;;;-147.17;100.00;59696.56;5035034;28;51367;-52
2021/06/13 03:43:07;;;;;;;;;8.00;8.00;;;;;-147.17;100.00;59696.56;5034938;28;51419;-52
2021/06/13 03:45:33;;;;;;;;;12.50;10.00;;;;;-147.17;100.00;59696.56;5034483;28;51982;-50
2021/06/13 03:47:59;;;;;;;;;12.50;12.50;;;;;-147.17;100.00;59696.56;5033303;28;51078;-50
2021/06/13 03:50:26;;;;;;;;;10.00;10.00;;;;;-147.17;100.00;59696.56;5034578;28;51082;-50
2021/06/13 03:52:51;;;;;;;;;12.00;11.33;;;;;-147.17;100.00;59696.56;5034660;28;51292;-54
2021/06/13 03:55:17;;;;;;;;;12.67;12.00;;;;;-147.17;100.00;59696.56;5034162;28;51989;-53
2021/06/13 03:57:47;;;;;;;;;10.67;10.67;;;;;-147.17;100.00;59696.56;5032768;28;51155;-54
2021/06/13 04:00:14;;;;;;;;;11.33;9.67;;;;;-147.17;100.00;59696.56;5034530;28;51080;-52
2021/06/13 04:02:45;;;;;;;;;10.33;10.33;;;;;-147.17;100.00;59696.56;5034394;28;50955;-54
2021/06/13 04:05:13;;;;;;;;;13.00;12.00;;;;;-147.17;100.00;59696.56;5023355;28;52736;-52
2021/06/13 04:07:41;;;;;;;;;7.67;7.33;;;;;-147.17;100.00;59696.56;5034300;28;51020;-53
2021/06/13 04:10:08;;;;;;;;;10.33;10.33;;;;;-147.17;100.00;59696.56;5033085;28;50868;-53
2021/06/13 04:12:36;;;;;;;;;10.00;9.33;;;;;-147.17;100.00;59696.56;5031954;28;51443;-51
2021/06/13 04:15:01;;;;;;;;;12.33;11.33;;;;;-147.17;100.00;59696.56;5034065;28;51202;-53
2021/06/13 04:17:27;;;;;;;;;10.00;10.00;;;;;-147.17;100.00;59696.56;5033520;28;51127;-49
2021/06/13 04:19:54;;;;;;;;;9.67;9.00;;;;;-147.17;100.00;59696.56;5034141;28;51206;-54
2021/06/13 04:22:21;;;;;;;;;11.00;11.00;;;;;-147.17;100.00;59696.56;5033017;28;51355;-53
2021/06/13 04:24:49;;;;;;;;;10.25;10.25;;;;;-147.17;100.00;59696.56;5033930;28;51678;-54
2021/06/13 04:27:19;;;;;;;;;10.67;10.67;;;;;-147.17;100.00;59696.56;5033980;28;51016;-53
2021/06/13 04:29:45;;;;;;;;;10.00;9.00;;;;;-147.17;100.00;59696.56;5024716;28;51228;-52
2021/06/13 04:32:11;;;;;;;;;11.50;11.50;;;;;-147.17;100.00;59696.56;5033175;28;51040;-50
2021/06/13 04:34:37;;;;;;;;;10.33;10.33;;;;;-147.17;100.00;59696.56;5033554;28;51953;-53
2021/06/13 04:37:03;;;;;;;;;10.25;10.25;;;;;-147.17;100.00;59696.56;5033875;28;50920;-53
2021/06/13 04:39:28;;;;;;;;;11.75;11.75;;;;;-147.17;100.00;59696.56;5033661;28;51018;-53
2021/06/13 04:41:54;;;;;;;;;10.67;9.67;;;;;-147.17;100.00;59696.56;5033850;28;50979;-53
2021/06/13 04:44:20;;;;;;;;;13.00;11.75;;;;;-147.17;100.00;59696.56;5033392;28;52563;-53
2021/06/13 04:46:45;;;;;;;;;12.50;11.25;;;;;-147.17;100.00;59696.56;5033518;28;51066;-53
2021/06/13 04:49:11;;;;;;;;;12.50;12.00;;;;;-147.17;100.00;59696.56;5032042;28;51063;-53
2021/06/13 04:51:39;;;;;;;;;12.00;12.00;;;;;-147.17;100.00;59696.56;5033714;28;51201;-53
2021/06/13 04:54:06;;;;;;;;;10.33;9.33;;;;;-147.17;100.00;59696.56;5032677;28;51428;-50
2021/06/13 04:56:37;;;;;;;;;11.50;10.50;;;;;-147.17;100.00;59696.56;5033473;28;50910;-53
2021/06/13 04:59:02;;;;;;;;;11.00;11.00;;;;;-147.17;100.00;59696.56;5033371;28;51077;-54
2021/06/13 05:01:28;;;;;;;;;11.00;10.33;;;;;-147.17;100.00;59696.56;5033892;28;51110;-53
2021/06/13 05:03:54;;;;;;;;;11.25;11.25;;;;;-147.17;100.00;59696.56;5032787;28;51076;-54
2021/06/13 05:06:20;;;;;;;;;10.67;10.67;;;;;-147.17;100.00;59696.56;5033682;28;51042;-54
2021/06/13 05:08:45;;;;;;;;;12.33;12.00;;;;;-147.17;100.00;59696.56;5033547;28;51237;-53
2021/06/13 05:11:12;;;;;;;;;10.33;9.33;;;;;-147.17;100.00;59696.56;5033461;28;51520;-54
2021/06/13 05:13:37;;;;;;;;;9.67;9.67;;;;;-147.17;100.00;59696.56;5033136;28;52894;-50
2021/06/13 05:16:03;;;;;;;;;11.67;11.67;;;;;-147.17;100.00;59696.56;5032549;28;50998;-49
2021/06/13 05:18:29;;;;;;;;;11.67;9.67;;;;;-147.17;100.00;59696.56;5033134;28;51043;-54
2021/06/13 05:20:54;;;;;;;;;11.00;10.33;;;;;-147.17;100.00;59696.56;5033389;28;51264;-54
2021/06/13 05:23:21;;;;;;;;;7.00;7.00;;;;;-147.17;100.00;59696.56;5031560;28;51335;-54
2021/06/13 05:25:47;;;;;;;;;8.00;7.67;;;;;-147.17;100.00;59696.56;5033118;28;51081;-54
2021/06/13 05:28:13;;;;;;;;;9.67;9.33;;;;;-147.17;100.00;59696.56;5033001;28;50985;-54
2021/06/13 05:30:39;;;;;;;;;11.33;10.33;;;;;-147.17;100.00;59696.56;5033019;28;51125;-52
2021/06/13 05:33:05;;;;;;;;;10.00;10.00;;;;;-147.17;100.00;59696.56;5032767;28;51683;-53
2021/06/13 05:35:31;;;;;;;;;11.33;9.33;;;;;-147.17;100.00;59696.56;5032839;28;50952;-51
2021/06/13 05:37:56;;;;;;;;;9.00;8.00;;;;;-147.17;100.00;59696.56;5032897;28;51070;-51
2021/06/13 05:40:23;;;;;;;;;9.67;9.00;;;;;-147.17;100.00;59696.56;5031991;28;51252;-54
2021/06/13 05:42:49;;;;;;;;;8.33;7.33;;;;;-147.17;100.00;59696.56;5032616;28;52389;-59
2021/06/13 05:45:16;;;;;;;;;9.00;9.00;;;;;-147.17;100.00;59696.56;5032077;28;50963;-54
2021/06/13 05:47:41;;;;;;;;;9.00;9.00;;;;;-147.17;100.00;59696.56;5032042;28;50978;-53
2021/06/13 05:50:09;;;;;;;;;9.00;8.67;;;;;-147.17;100.00;59696.56;5032592;28;51427;-53
2021/06/13 05:52:35;;;;;;;;;9.00;7.67;;;;;-147.17;100.00;59696.56;5031378;28;53054;-51
2021/06/13 05:55:01;;;;;;;;;9.33;9.33;;;;;-147.17;100.00;59696.56;5032721;28;51050;-52
2021/06/13 05:57:32;;;;;;;;;7.00;7.00;;;;;-147.17;100.00;59696.56;5032739;28;51306;-53
2021/06/13 05:59:59;;;;;;;;;7.67;7.00;;;;;-147.17;100.00;59696.56;5033211;28;50979;-51
2021/06/13 06:02:24;;;;;;;;;8.00;8.00;;;;;-147.17;100.00;59696.56;5032268;28;51924;-50
2021/06/13 06:04:49;;;;;;;;;9.33;8.67;;;;;-147.17;100.00;59696.56;5032477;28;51031;-52
2021/06/13 06:07:15;;;;;;;;;8.00;7.33;;;;;-147.17;100.00;59696.56;5030933;28;51211;-50
2021/06/13 06:09:40;;;;;;;;;8.67;8.67;;;;;-147.17;100.00;59696.56;5032951;28;50819;-51
2021/06/13 06:12:06;;;;;;;;;6.00;6.00;;;;;-147.17;100.00;59696.56;5030473;28;50959;-56
2021/06/13 06:14:31;;;;;;;;;7.33;7.33;;;;;-147.17;100.00;59696.56;5032291;28;50979;-53
2021/06/13 06:16:56;;;;;;;;;5.33;5.33;;;;;-147.17;100.00;59696.56;5032518;28;51091;-54
2021/06/13 06:19:22;;;;;;;;;6.33;6.33;;;;;-147.17;100.00;59696.56;5032635;28;51039;-54
2021/06/13 06:21:47;;;;;;;;;5.33;5.33;;;;;-147.17;100.00;59696.56;5032214;28;51110;-55
2021/06/13 06:24:13;;;;;;;;;5.33;5.00;;;;;-147.17;100.00;59696.56;5032394;28;50842;-54
2021/06/13 06:26:38;;;;;;;;;6.00;6.00;;;;;-147.17;100.00;59696.56;5029848;28;51371;-55
2021/06/13 06:29:04;;;;;;;;;5.67;5.33;;;;;-147.17;100.00;59696.56;5023158;28;51096;-55
2021/06/13 06:31:29;;;;;;;;;6.33;6.33;;;;;-147.17;100.00;59696.56;5031909;28;50948;-54
2021/06/13 06:33:54;;;;;;;;;4.00;4.00;;;;;-147.17;100.00;59696.56;5031973;28;50999;-55
2021/06/13 06:36:20;;;;;;;;;7.00;6.00;;;;;-147.17;100.00;59696.56;5033996;28;51233;-55
2021/06/13 06:38:45;;;;;;;;;7.67;6.67;;;;;-147.17;100.00;59696.56;5035640;28;51322;-52
2021/06/13 06:41:11;;;;;;;;;6.00;6.00;;;;;-147.17;100.00;59696.56;5035409;28;51290;-53
2021/06/13 06:43:36;;;;;;;;;6.67;6.67;;;;;-147.17;100.00;59696.56;5035489;28;51105;-52
2021/06/13 06:46:02;;;;;;;;;6.67;6.00;;;;;-147.17;100.00;59696.56;5035374;28;51316;-54
2021/06/13 06:48:27;;;;;;;;;6.33;5.33;;;;;-147.17;100.00;59696.56;5030463;28;51280;-55
2021/06/13 06:50:52;;;;;;;;;5.67;5.67;;;;;-147.17;100.00;59696.56;5032717;28;51737;-53
2021/06/13 06:53:18;;;;;;;;;5.00;5.00;;;;;-147.17;100.00;59696.56;5029634;28;50999;-54
2021/06/13 06:55:43;;;;;;;;;5.00;5.00;;;;;-147.17;100.00;59696.56;5032460;28;51356;-54
2021/06/13 06:58:08;;;;;;;;;5.00;5.00;;;;;-147.17;100.00;59696.56;5035295;28;51260;-54
2021/06/13 07:00:34;;;;;;;;;4.00;4.00;;;;;-147.17;100.00;59696.56;5033672;28;52377;-55
2021/06/13 07:02:59;;;;;;;;;4.67;4.67;;;;;-147.17;100.00;59696.56;5034880;28;51267;-54
2021/06/13 07:05:24;;;;;;;;;4.33;4.33;;;;;-147.17;100.00;59696.56;5035146;28;50917;-53
2021/06/13 07:07:50;;;;;;;;;5.00;5.00;;;;;-147.17;100.00;59696.56;5034952;28;51332;-55
2021/06/13 07:10:15;;;;;;;;;5.00;5.00;;;;;-147.17;100.00;59696.56;5034632;28;50965;-53
2021/06/13 07:12:42;;;;;;;;;5.00;4.33;;;;;-147.17;100.00;59696.56;5032867;28;51097;-54
2021/06/13 07:15:08;;;;;;;;;5.00;5.00;;;;;-147.17;100.00;59696.56;5034789;28;50958;-53
2021/06/13 07:17:35;;;;;;;;;3.67;3.67;;;;;-147.17;100.00;59696.56;5033455;28;51430;-55
2021/06/13 07:20:01;;;;;;;;;5.00;4.67;;;;;-147.17;100.00;59696.56;5033870;28;51066;-55
2021/06/13 07:22:26;;;;;;;;;5.00;5.00;;;;;-147.17;100.00;59696.56;5034071;28;50969;-54
2021/06/13 07:24:54;;;;;;;;;4.00;4.00;;;;;-147.17;100.00;59696.56;5033450;28;51478;-55
2021/06/13 07:27:20;;;;;;;;;4.33;4.33;;;;;-147.17;100.00;59696.56;5034523;28;51415;-56
2021/06/13 07:29:46;;;;;;;;;4.00;4.00;;;;;-147.17;100.00;59696.56;5025824;28;51998;-55
2021/06/13 07:32:11;;;;;;;;;3.00;3.00;;;;;-147.17;100.00;59696.56;5033456;28;51165;-56
2021/06/13 07:34:37;;;;;;;;;5.00;4.33;;;;;-147.17;100.00;59696.56;5034595;28;51050;-56
2021/06/13 07:37:04;;;;;;;;;5.67;4.00;;;;;-147.17;100.00;59696.56;5034929;28;51511;-54
2021/06/13 07:39:30;;;;;;;;;6.00;5.67;;;;;-147.17;100.00;59696.56;5034362;28;53007;-56
2021/06/13 07:41:57;;;;;;;;;4.00;4.00;;;;;-147.17;100.00;59696.56;5033681;28;50938;-54
2021/06/13 07:44:23;;;;;;;;;4.33;4.33;;;;;-147.17;100.00;59696.56;5032766;28;51122;-56
2021/06/13 07:46:48;;;;;;;;;5.00;5.00;;;;;-147.17;100.00;59696.56;5031904;28;51061;-56
2021/06/13 07:49:13;;;;;;;;;3.33;3.00;;;;;-147.17;100.00;59696.56;5033765;28;50976;-56
2021/06/13 07:51:39;;;;;;;;;3.00;3.00;;;;;-147.17;100.00;59696.56;5034458;28;51094;-56
2021/06/13 07:54:05;;;;;;;;;6.00;6.00;;;;;-147.17;100.00;59696.56;5033897;28;51187;-55
2021/06/13 07:56:30;;;;;;;;;4.33;4.33;;;;;-147.17;100.00;59696.56;5034555;28;51099;-55
2021/06/13 07:58:56;;;;;;;;;3.67;3.00;;;;;-147.17;100.00;59696.56;5034108;28;51638;-54
2021/06/13 08:01:21;;;;;;;;;5.67;4.00;;;;;-147.17;100.00;59696.56;5034213;28;50977;-55
2021/06/13 08:03:46;;;;;;;;;4.00;4.00;;;;;-147.17;100.00;59696.56;5032983;28;51195;-54
2021/06/13 08:06:12;;;;;;;;;3.33;3.33;;;;;-147.17;100.00;59696.56;5034296;28;51186;-54
2021/06/13 08:08:37;;;;;;;;;4.00;3.33;;;;;-147.17;100.00;59696.56;5033594;28;51937;-56
2021/06/13 08:11:07;;;;;;;;;4.00;4.00;;;;;-147.17;100.00;59696.56;5033560;28;50860;-56
2021/06/13 08:13:33;;;;;;;;;5.00;5.00;;;;;-147.17;100.00;59696.56;5034013;28;50983;-53
2021/06/13 08:15:58;;;;;;;;;3.00;3.00;;;;;-147.17;100.00;59696.56;5033887;28;51048;-55
2021/06/13 08:18:24;;;;;;;;;4.67;4.00;;;;;-147.17;100.00;59696.56;5030093;28;51389;-55
2021/06/13 08:20:50;;;;;;;;;5.00;4.00;;;;;-147.17;100.00;59696.56;5033214;28;51052;-55
2021/06/13 08:23:15;;;;;;;;;3.67;3.00;;;;;-147.17;100.00;59696.56;5033746;28;51103;-54
2021/06/13 08:25:41;;;;;;;;;6.67;5.33;;;;;-147.17;100.00;59696.56;5033619;28;51050;-55
2021/06/13 08:28:06;;;;;;;;;3.00;3.00;;;;;-147.17;100.00;59696.56;5032908;28;52012;-55
2021/06/13 08:30:32;;;;;;;;;4.00;4.00;;;;;-147.17;100.00;59696.56;5033392;28;50883;-55
2021/06/13 08:32:58;;;;;;;;;3.00;3.00;;;;;-147.17;100.00;59696.56;5030722;28;51222;-55
2021/06/13 08:35:24;;;;;;;;;5.00;4.33;;;;;-147.17;100.00;59696.56;5031529;28;50828;-55
2021/06/13 08:37:49;;;;;;;;;4.00;4.00;;;;;-147.17;100.00;59696.56;5031493;28;51003;-55
2021/06/13 08:40:15;;;;;;;;;3.00;3.00;;;;;-147.17;100.00;59696.56;5029834;28;52128;-55
2021/06/13 08:42:42;;;;;;;;;3.00;3.00;;;;;-147.17;100.00;59696.56;5028089;28;51252;-56
2021/06/13 08:45:10;;;;;;;;;5.67;5.67;;;;;-147.17;100.00;59696.56;5033079;28;51402;-57
2021/06/13 08:47:36;;;;;;;;;5.33;5.33;;;;;-147.17;100.00;59696.56;5032619;28;50988;-56
2021/06/13 08:50:05;;;;;;;;;3.33;3.33;;;;;-147.17;100.00;59696.56;5033075;28;51146;-54
2021/06/13 08:52:31;;;;;;;;;2.33;2.33;;;;;-147.17;100.00;59696.56;5030143;28;51054;-54
2021/06/13 08:54:59;;;;;;;;;3.00;3.00;;;;;-147.17;100.00;59696.56;5033104;28;51258;-55
2021/06/13 08:57:24;;;;;;;;;5.00;5.00;;;;;-147.17;100.00;59696.56;5032933;28;51266;-56
2021/06/13 08:59:50;;;;;;;;;4.33;4.33;;;;;-147.17;100.00;59696.56;5030676;28;51288;-55
2021/06/13 09:02:16;;;;;;;;;3.67;3.67;;;;;-147.17;100.00;59696.56;5030883;28;51103;-54
2021/06/13 09:04:41;;;;;;;;;4.33;3.67;;;;;-147.17;100.00;59696.56;5026505;28;50940;-58
2021/06/13 09:07:20;;;;;;;;;5.33;4.00;;;;;-147.17;100.00;59696.56;5024846;28;50884;-54
2021/06/13 09:09:46;;;;;;;;;3.00;3.00;;;;;-147.17;100.00;59696.56;5029255;28;51177;-53
2021/06/13 09:12:11;;;;;;;;;4.33;4.33;;;;;-147.17;100.00;59696.56;5031778;28;51073;-54
2021/06/13 09:14:39;;;;;;;;;4.00;4.00;;;;;-147.17;100.00;59696.56;5033104;28;50961;-54
2021/06/13 09:17:16;;;;;;;;;3.67;3.67;;;;;-147.17;100.00;59696.56;5032381;28;52238;-54
2021/06/13 09:20:27;;;;;;;;;3.33;3.33;;;;;-147.17;100.00;59696.56;5032330;28;50913;-55
2021/06/13 09:23:13;;;;;;;;;3.00;3.00;;;;;-147.17;100.00;59696.56;5032316;28;50943;-54
2021/06/13 09:25:42;;;;;;;;;3.00;3.00;;;;;-147.17;100.00;59696.56;5032566;28;51149;-58
2021/06/13 09:28:12;;;;;;;;;2.00;2.00;;;;;-147.17;100.00;59696.56;5031816;28;52338;-59
2021/06/13 09:30:41;;;;;;;;;5.33;5.00;;;;;-147.17;100.00;59696.56;5032168;28;51165;-54
2021/06/13 09:33:12;;;;;;;;;3.00;3.00;;;;;-147.17;100.00;59696.56;5029385;28;51159;-54
2021/06/13 09:35:38;;;;;;;;;5.00;5.00;;;;;-147.17;100.00;59696.56;5018688;28;51404;-55
2021/06/13 09:38:15;;;;;;;;;4.00;4.00;;;;;-147.17;100.00;59696.56;5028173;28;52462;-54
2021/06/13 09:40:46;;;;;;;;;6.00;5.00;;;;;-147.17;100.00;59696.56;5028232;28;51119;-54
2021/06/13 09:43:16;;;;;;;;;3.67;3.67;;;;;-147.17;100.00;59696.56;5031939;28;51168;-55
2021/06/13 09:45:51;;;;;;;;;4.00;3.67;;;;;-147.17;100.00;59696.56;5032107;28;51319;-53
2021/06/13 09:48:17;;;;;;;;;4.00;4.00;;;;;-147.17;100.00;59696.56;5030669;28;50882;-54
2021/06/13 09:50:47;;;;;;;;;5.00;5.00;;;;;-147.17;100.00;59696.56;5031618;28;51002;-55
2021/06/13 09:53:18;;;;;;;;;3.00;3.00;;;;;-147.17;100.00;59696.56;5032014;28;50967;-54
2021/06/13 09:55:43;;;;;;;;;4.00;4.00;;;;;-147.17;100.00;59696.56;5030470;28;51129;-54
2021/06/13 09:58:09;;;;;;;;;4.67;4.67;;;;;-147.17;100.00;59696.56;5031493;28;51636;-56
2021/06/13 10:00:34;;;;;;;;;3.33;3.33;;;;;-147.17;100.00;59696.56;5026963;28;51160;-54
2021/06/13 10:03:20;;;;;;;;;5.00;4.00;;;;;-147.17;100.00;59696.56;5031659;28;51017;-55
2021/06/13 10:05:56;;;;;;;;;4.00;4.00;;;;;-147.17;100.00;59696.56;5031703;28;51081;-54
2021/06/13 10:08:22;;;;;;;;;4.00;4.00;;;;;-147.17;100.00;59696.56;5031712;28;51044;-55
2021/06/13 10:10:48;;;;;;;;;3.67;3.00;;;;;-147.17;100.00;59696.56;5020239;28;51127;-55
2021/06/13 10:13:14;;;;;;;;;5.00;5.00;;;;;-147.17;100.00;59696.56;5019134;28;51840;-59
2021/06/13 10:15:39;;;;;;;;;9.00;9.00;;;;;-147.17;100.00;59696.56;5026285;28;51463;-54
2021/06/13 10:18:10;;;;;;;;;4.00;4.00;;;;;-147.17;100.00;59696.56;5024894;28;53670;-54
2021/06/13 10:20:36;;;;;;;;;4.67;4.67;;;;;-147.17;100.00;59696.56;5028013;28;51091;-55
2021/06/13 10:23:04;;;;;;;;;3.67;3.33;;;;;-147.17;100.00;59696.56;5025733;28;53577;-56
2021/06/13 10:25:30;;;;;;;;;4.00;4.00;;;;;-147.17;100.00;59696.56;5029557;28;51236;-56
2021/06/13 10:27:58;;;;;;;;;4.00;4.00;;;;;-147.17;100.00;59696.56;5024455;28;51323;-57
2021/06/13 10:30:24;;;;;;;;;4.33;4.00;;;;;-147.17;100.00;59696.56;5028258;28;51141;-56
2021/06/13 10:32:50;;;;;;;;;2.00;2.00;;;;;-147.17;100.00;59696.56;5027825;28;51346;-58
2021/06/13 10:35:16;;;;;;;;;4.00;4.00;;;;;-147.17;100.00;59696.56;5027949;28;51299;-58
2021/06/13 10:37:42;;;;;;;;;5.00;5.00;;;;;-147.17;100.00;59696.56;5028399;28;51769;-56
2021/06/13 10:40:09;;;;;;;;;3.67;3.67;;;;;-147.17;100.00;59696.56;5030187;28;51267;-58
2021/06/13 10:42:38;;;;;;;;;3.67;3.67;;;;;-147.17;100.00;59696.56;5028639;28;51225;-57
2021/06/13 10:45:06;;;;;;;;;4.00;3.33;;;;;-147.17;100.00;59696.56;5029767;28;51088;-55
2021/06/13 10:47:32;;;;;;;;;3.00;3.00;;;;;-147.17;100.00;59696.56;5029753;28;51205;-55
2021/06/13 10:50:13;;;;;;;;;3.00;3.00;;;;;-147.17;100.00;59696.56;5028510;28;51105;-56
2021/06/13 10:52:59;;;;;;;;;3.00;3.00;;;;;-147.17;100.00;59696.56;5026342;28;51019;-57
2021/06/13 10:55:54;;;;;;;;;2.00;2.00;;;;;-147.17;100.00;59696.56;5025099;28;51246;-55
2021/06/13 10:58:45;;;;;;;;;4.67;4.67;;;;;-147.17;100.00;59696.56;5028758;28;52077;-57
2021/06/13 11:01:27;;;;;;;;;5.00;5.00;;;;;-147.17;100.00;59696.56;5020687;28;51046;-58
2021/06/13 11:04:00;;;;;;;;;3.00;3.00;;;;;-147.17;100.00;59696.56;5028304;28;51175;-58
2021/06/13 11:06:42;;;;;;;;;5.67;5.00;;;;;-147.17;100.00;59696.56;5029216;28;51232;-57
2021/06/13 11:09:10;;;;;;;;;4.00;4.00;;;;;-147.17;100.00;59696.56;5017293;28;53176;-58